Главная страница
METAR-TAF:

METAR-TAF

Аэропорты :

Закаталы, Азербайджан

Парзиван

широта: 41-33-44N, долгота: 46-40-02E, высота над уровнем моря: 330 м

Текущие метеонаблюдения

Эта сводка был подготовлена 34 минут назад, в 19:00 UTC
Ветер 4 Узел от восточно-северо-восточный
Температура 10°C
Влажность 66%
Давление 1036 hPa
Видимость 10 км и более
Сплошная облачность на высоте 4000 фута

METAR: UBBY 261900Z 07004KT 9999 OVC040 10/04 Q1036 R33/////// NOSIG RMK MT PT OBSC

Время: 23:34 (19:34 UTC)

Прогноз

Эта сводка был подготовлена 2 часа и 34 минут назад, в 17:00 UTC
Прогноз действительный с 26-го 18 UTC до 27-го 03 UTC
Ветер 4 Узел переменных направлений
Видимость 10 км и более
Отдельные облака на высоте 3000 фута
Сплошная облачность на высоте 5000 фута

TAF: UBBY 261700Z 2618/2703 VRB04KT 9999 SCT030 OVC050

Метеонаблюдения и прогнозы для более 4000 аэропортов (сводки METAR и TAF).

Имеющиеся станции представлены на карте желтыми и красными точками.

Чтобы увидеть название станции, наведите на нее мышь.

Затем щелкните, чтобы увидеть метеонаблюдения и метеопрогнозы.

Управление картой: чтобы увеличить масштаб, щелкните зеленые кнопки с черным крестиком; чтобы уменьшить масштаб, щелкните зеленую кнопку с тире; для просмотра соседних карт щелкайте зеленые стрелки.


METAR-TAF: